Envira, Brazil
Current Conditions -  °F | °C
As of 3:00 PM on Monday 22 Dec 2014 (Local Time) from SBCZ Reporting Station
Broken Clouds Broken Clouds  
Wind Chill: 91°   Ceiling: 3000
Heat Index: 105°   Visibility: 6mi
Dew Point: 77°   Wind: 7mph
Humidity: 63%   Direction: 330°NNW
Pressure: 29.77"   Gusts: NA
Location:  7.43°S, 70.02°W
Report Text: SBCZ 221900Z 33006KT 9999 BKN030 33/25 Q1008
Loading
Personal Weather Stations






























Interactive Weather Map New forecast layout! Learn more

10-Day Weather Forecast

Advertisements
Track Severe Weather on mobile